createdAt,value
2023-03-29T00:00:13.972Z,12.00
2023-03-29T00:02:41.818Z,12.08
2023-03-29T00:05:09.706Z,12.06
2023-03-29T00:07:38.854Z,12.01
2023-03-29T00:10:08.929Z,11.94
2023-03-29T00:12:38.935Z,11.93
2023-03-29T00:15:10.498Z,11.90
2023-03-29T00:17:38.076Z,11.98
2023-03-29T00:20:12.356Z,11.92
2023-03-29T00:22:43.025Z,11.93
2023-03-29T00:25:13.062Z,11.84
2023-03-29T00:27:42.670Z,11.75
2023-03-29T00:30:12.793Z,11.65
2023-03-29T00:32:42.929Z,11.73
2023-03-29T00:35:09.985Z,11.73
2023-03-29T00:37:38.896Z,11.82
2023-03-29T00:40:12.266Z,11.67
2023-03-29T00:42:43.769Z,11.72
2023-03-29T00:45:13.230Z,11.73
2023-03-29T00:47:46.761Z,11.74
2023-03-29T00:50:31.464Z,11.74
2023-03-29T00:53:03.605Z,11.77
2023-03-29T00:55:36.344Z,11.91
2023-03-29T00:58:07.412Z,12.01
2023-03-29T01:00:38.017Z,11.90
2023-03-29T01:03:13.936Z,11.93
2023-03-29T01:05:45.726Z,11.92
2023-03-29T01:08:28.306Z,11.83
2023-03-29T01:11:16.804Z,11.87
2023-03-29T01:13:49.841Z,11.96
2023-03-29T01:16:19.585Z,12.17
2023-03-29T01:18:49.072Z,12.02
2023-03-29T01:21:36.249Z,12.07
2023-03-29T01:24:48.196Z,11.95
2023-03-29T01:27:15.535Z,11.93
2023-03-29T01:30:00.333Z,11.90
2023-03-29T01:32:52.406Z,11.92
2023-03-29T01:35:35.823Z,11.87
2023-03-29T01:38:28.072Z,11.60
2023-03-29T01:40:54.645Z,11.46
2023-03-29T01:43:30.806Z,11.39
2023-03-29T01:46:14.459Z,11.36
2023-03-29T01:48:50.955Z,11.39
2023-03-29T01:51:25.803Z,11.37
2023-03-29T01:54:03.154Z,11.39
2023-03-29T01:56:34.224Z,11.38
2023-03-29T01:59:08.380Z,11.27
2023-03-29T02:01:40.352Z,11.46
2023-03-29T02:04:11.150Z,11.35
2023-03-29T02:06:39.781Z,11.25
2023-03-29T02:09:07.219Z,11.26
2023-03-29T02:11:36.133Z,11.36
2023-03-29T02:14:03.458Z,11.30
2023-03-29T02:16:35.846Z,11.34
2023-03-29T02:19:03.113Z,11.33
2023-03-29T02:21:51.769Z,11.39
2023-03-29T02:24:20.722Z,11.37
2023-03-29T02:26:48.512Z,11.38
2023-03-29T02:29:19.318Z,11.51
2023-03-29T02:31:57.969Z,11.57
2023-03-29T02:34:30.079Z,11.50
2023-03-29T02:37:06.730Z,11.57
2023-03-29T02:39:34.948Z,11.52
2023-03-29T02:42:03.061Z,11.58
2023-03-29T02:44:32.747Z,11.60
2023-03-29T02:47:05.778Z,11.70
2023-03-29T02:49:32.606Z,11.78
2023-03-29T02:52:08.739Z,11.79
2023-03-29T02:54:37.894Z,12.03
2023-03-29T02:57:08.749Z,11.93
2023-03-29T02:59:35.459Z,11.94
2023-03-29T03:02:03.218Z,12.00
2023-03-29T03:04:29.795Z,12.08
2023-03-29T03:06:56.239Z,12.01
2023-03-29T03:09:22.781Z,11.85
2023-03-29T03:11:52.315Z,11.78
2023-03-29T03:14:22.866Z,11.81
2023-03-29T03:16:50.193Z,11.81
2023-03-29T03:19:18.981Z,11.79
2023-03-29T03:21:49.297Z,11.87
2023-03-29T03:24:15.716Z,12.01
2023-03-29T03:26:42.228Z,11.82
2023-03-29T03:29:08.726Z,11.78
2023-03-29T03:31:35.264Z,11.77
2023-03-29T03:34:01.790Z,11.71
2023-03-29T03:36:29.164Z,11.79
2023-03-29T03:38:55.698Z,11.77
2023-03-29T03:41:22.642Z,11.77
2023-03-29T03:43:52.083Z,11.81
2023-03-29T03:46:20.597Z,11.77
2023-03-29T03:48:49.538Z,11.75
2023-03-29T03:51:16.191Z,11.77
2023-03-29T03:53:42.866Z,11.74
2023-03-29T03:56:09.542Z,11.80
2023-03-29T03:58:37.102Z,11.90
2023-03-29T04:01:11.281Z,11.91
2023-03-29T04:03:37.916Z,11.74
2023-03-29T04:06:05.190Z,11.71
2023-03-29T04:08:32.032Z,11.79
2023-03-29T04:10:59.691Z,11.72
2023-03-29T04:13:27.163Z,11.80
2023-03-29T04:15:57.184Z,11.78
2023-03-29T04:18:25.583Z,11.64
2023-03-29T04:20:55.381Z,11.64
2023-03-29T04:23:25.146Z,11.79
2023-03-29T04:25:56.541Z,11.84
2023-03-29T04:28:23.583Z,11.88
2023-03-29T04:30:50.880Z,11.92
2023-03-29T04:33:17.731Z,11.98
2023-03-29T04:35:44.403Z,11.85
2023-03-29T04:38:11.444Z,11.84
2023-03-29T04:40:38.496Z,11.91
2023-03-29T04:43:05.178Z,11.85
2023-03-29T04:45:31.620Z,11.88
2023-03-29T04:48:01.727Z,11.82
2023-03-29T04:50:28.470Z,11.73
2023-03-29T04:52:55.211Z,11.83
2023-03-29T04:55:25.412Z,11.71
2023-03-29T04:57:55.853Z,11.84
2023-03-29T05:00:27.617Z,11.94
2023-03-29T05:02:54.693Z,11.90
2023-03-29T05:05:25.260Z,11.87
2023-03-29T05:07:54.877Z,11.78
2023-03-29T05:10:22.753Z,11.72
2023-03-29T05:12:54.232Z,11.81
2023-03-29T05:15:24.220Z,11.81
2023-03-29T05:17:53.391Z,11.80
2023-03-29T05:20:20.119Z,11.85
2023-03-29T05:22:47.069Z,11.86
2023-03-29T05:25:13.620Z,11.88
2023-03-29T05:27:40.178Z,11.82
2023-03-29T05:30:07.282Z,11.86
2023-03-29T05:32:37.267Z,11.81
2023-03-29T05:35:05.195Z,11.81
2023-03-29T05:37:34.427Z,11.86
2023-03-29T05:40:05.513Z,11.83
2023-03-29T05:42:32.930Z,11.95
2023-03-29T05:44:59.437Z,11.94
2023-03-29T05:47:26.061Z,11.94
2023-03-29T05:49:54.087Z,11.92
2023-03-29T05:52:22.191Z,11.85
2023-03-29T05:54:49.096Z,11.89
2023-03-29T05:57:16.142Z,11.98
2023-03-29T05:59:42.858Z,12.08
2023-03-29T06:02:11.789Z,12.14
2023-03-29T06:04:39.132Z,12.09
2023-03-29T06:07:07.187Z,11.99
2023-03-29T06:09:34.901Z,12.13
2023-03-29T06:12:01.913Z,12.12
2023-03-29T06:14:29.022Z,12.18
2023-03-29T06:16:56.619Z,12.20
2023-03-29T06:19:26.410Z,12.19
2023-03-29T06:21:56.097Z,12.20
2023-03-29T06:24:26.055Z,12.31
2023-03-29T06:26:56.536Z,12.35
2023-03-29T06:29:23.440Z,12.37
2023-03-29T06:31:50.556Z,12.28
2023-03-29T06:34:17.941Z,12.37
2023-03-29T06:36:45.805Z,12.49
2023-03-29T06:39:12.611Z,12.41
2023-03-29T06:41:39.301Z,12.58
2023-03-29T06:44:06.663Z,12.47
2023-03-29T06:46:33.544Z,12.54
2023-03-29T06:49:02.316Z,12.67
2023-03-29T06:51:29.406Z,12.73
2023-03-29T06:53:55.903Z,12.75
2023-03-29T06:56:25.442Z,12.91
2023-03-29T06:58:53.670Z,13.12
2023-03-29T07:01:24.581Z,12.83
2023-03-29T07:03:53.246Z,13.06
2023-03-29T07:06:22.870Z,13.05
2023-03-29T07:08:53.385Z,13.23
2023-03-29T07:11:22.764Z,13.33
2023-03-29T07:13:49.350Z,13.35
2023-03-29T07:16:16.340Z,13.66
2023-03-29T07:18:44.273Z,13.64
2023-03-29T07:21:12.521Z,13.71
2023-03-29T07:23:39.505Z,13.75
2023-03-29T07:26:10.477Z,13.85
2023-03-29T07:28:40.639Z,13.95
2023-03-29T07:31:11.126Z,14.10
2023-03-29T07:33:39.502Z,14.00
2023-03-29T07:36:07.065Z,13.97
2023-03-29T07:38:34.044Z,13.98
2023-03-29T07:41:06.934Z,14.07
2023-03-29T07:43:34.798Z,14.28
2023-03-29T07:46:06.231Z,14.09
2023-03-29T07:48:33.916Z,13.98
2023-03-29T07:51:00.967Z,13.83
2023-03-29T07:53:29.794Z,13.63
2023-03-29T07:55:57.203Z,13.58
2023-03-29T07:58:27.547Z,13.72
2023-03-29T08:00:54.108Z,13.57
2023-03-29T08:03:23.001Z,13.62
2023-03-29T08:05:49.584Z,13.79
2023-03-29T08:08:16.099Z,14.02
2023-03-29T08:10:42.752Z,14.15
2023-03-29T08:13:12.626Z,14.52
2023-03-29T08:15:40.079Z,14.74
2023-03-29T08:18:08.048Z,15.03
2023-03-29T08:20:34.638Z,15.70
2023-03-29T08:23:01.139Z,16.44
2023-03-29T08:25:27.663Z,16.81
2023-03-29T08:27:54.132Z,16.87
2023-03-29T08:30:23.096Z,17.20
2023-03-29T08:32:52.194Z,17.58
2023-03-29T08:35:22.165Z,17.86
2023-03-29T08:37:48.602Z,17.98
2023-03-29T08:40:28.033Z,17.94
2023-03-29T08:43:01.971Z,18.29
2023-03-29T08:45:56.466Z,18.58
2023-03-29T08:48:28.587Z,18.97
2023-03-29T08:51:02.622Z,19.04
2023-03-29T08:53:38.137Z,19.16
2023-03-29T08:56:10.394Z,19.39
2023-03-29T08:58:38.194Z,19.42
2023-03-29T09:01:08.789Z,19.55
2023-03-29T09:03:42.875Z,19.57
2023-03-29T09:06:12.575Z,19.56
2023-03-29T09:08:49.742Z,19.66
2023-03-29T09:11:36.700Z,19.56
2023-03-29T09:14:37.141Z,19.85
2023-03-29T09:17:26.577Z,20.24
2023-03-29T09:20:04.565Z,20.23
2023-03-29T09:22:44.233Z,20.76
2023-03-29T09:25:28.582Z,21.61
2023-03-29T09:28:19.198Z,22.28
2023-03-29T09:30:56.529Z,23.18
2023-03-29T09:33:30.466Z,23.58
2023-03-29T09:36:11.861Z,23.46
2023-03-29T09:38:43.223Z,23.92
2023-03-29T09:41:29.450Z,23.98
2023-03-29T09:43:58.598Z,23.94
2023-03-29T09:46:40.419Z,24.27
2023-03-29T09:49:13.374Z,24.48
2023-03-29T09:51:42.842Z,25.08
2023-03-29T09:54:12.056Z,25.61
2023-03-29T09:56:39.433Z,25.87
2023-03-29T09:59:07.245Z,25.48
2023-03-29T10:01:41.702Z,25.53
2023-03-29T10:04:10.190Z,25.57
2023-03-29T10:06:42.585Z,25.27
2023-03-29T10:09:16.869Z,25.51
2023-03-29T10:11:47.919Z,25.27
2023-03-29T10:14:19.118Z,25.32
2023-03-29T10:16:46.698Z,25.53
2023-03-29T10:19:23.395Z,25.40
2023-03-29T10:21:53.933Z,25.89
2023-03-29T10:24:28.156Z,26.18
2023-03-29T10:27:00.038Z,26.83
2023-03-29T10:29:27.855Z,27.28
2023-03-29T10:31:56.993Z,27.02
2023-03-29T10:34:30.210Z,27.24
2023-03-29T10:37:01.167Z,27.82
2023-03-29T10:39:32.852Z,27.92
2023-03-29T10:42:01.075Z,28.08
2023-03-29T10:44:33.404Z,28.23
2023-03-29T10:47:23.524Z,28.46
2023-03-29T10:50:01.563Z,27.81
2023-03-29T10:52:30.089Z,27.16
2023-03-29T10:54:56.924Z,26.83
2023-03-29T10:57:41.829Z,26.70
2023-03-29T11:00:42.326Z,26.35
2023-03-29T11:03:37.499Z,26.33
2023-03-29T11:06:34.553Z,27.18
2023-03-29T11:09:20.638Z,27.05
2023-03-29T11:12:12.209Z,26.94
2023-03-29T11:15:11.186Z,27.05
2023-03-29T11:17:40.765Z,27.02
2023-03-29T11:20:34.991Z,26.79
2023-03-29T11:23:13.419Z,26.35
2023-03-29T11:26:09.759Z,26.01
2023-03-29T11:29:25.404Z,25.89
2023-03-29T11:32:01.652Z,25.73
2023-03-29T11:34:37.431Z,25.76
2023-03-29T11:37:27.126Z,26.01
2023-03-29T11:40:12.404Z,26.69
2023-03-29T11:42:43.557Z,27.70
2023-03-29T11:45:26.033Z,28.64
2023-03-29T11:47:59.346Z,29.17
2023-03-29T11:50:36.012Z,29.45
2023-03-29T11:53:08.702Z,29.29
2023-03-29T11:55:39.612Z,29.43
2023-03-29T11:58:27.240Z,29.42
2023-03-29T12:00:58.474Z,29.27
2023-03-29T12:06:40.838Z,28.96
2023-03-29T12:09:24.413Z,28.92
2023-03-29T12:12:15.251Z,28.44
2023-03-29T12:15:01.178Z,28.17
2023-03-29T12:17:38.110Z,28.39
2023-03-29T12:20:13.376Z,28.28
2023-03-29T12:22:40.414Z,27.92
2023-03-29T12:25:10.888Z,28.04
2023-03-29T12:27:56.121Z,28.34
2023-03-29T12:30:50.814Z,28.15
2023-03-29T12:33:44.628Z,28.70
2023-03-29T12:36:32.860Z,29.03
2023-03-29T12:38:59.551Z,29.07
2023-03-29T12:41:26.445Z,28.79
2023-03-29T12:44:02.107Z,28.99
2023-03-29T12:46:33.265Z,28.67
2023-03-29T12:49:24.374Z,28.19
2023-03-29T12:51:51.294Z,28.48
2023-03-29T12:54:28.058Z,28.95
2023-03-29T12:56:58.267Z,28.73
2023-03-29T12:59:46.024Z,28.36
2023-03-29T13:02:12.645Z,27.74
2023-03-29T13:04:51.242Z,27.72
2023-03-29T13:07:45.479Z,28.06
2023-03-29T13:10:50.195Z,28.18
2023-03-29T13:13:24.169Z,28.22
2023-03-29T13:15:50.837Z,28.70
2023-03-29T13:18:39.827Z,29.27
2023-03-29T13:21:13.144Z,29.77
2023-03-29T13:23:45.964Z,30.09
2023-03-29T13:26:37.275Z,30.46
2023-03-29T13:29:18.992Z,30.95
2023-03-29T13:31:57.390Z,31.11
2023-03-29T13:34:39.006Z,31.19
2023-03-29T13:37:37.422Z,30.84
2023-03-29T13:40:43.570Z,30.72
2023-03-29T13:43:22.697Z,30.76
2023-03-29T13:45:58.696Z,31.03
2023-03-29T13:48:29.585Z,30.24
2023-03-29T13:51:04.998Z,29.59
2023-03-29T13:53:34.911Z,28.59
2023-03-29T13:56:01.914Z,27.95
2023-03-29T13:58:49.597Z,27.42
2023-03-29T14:01:39.076Z,27.51
2023-03-29T14:04:12.467Z,28.00
2023-03-29T14:06:42.525Z,28.56
2023-03-29T14:09:14.373Z,28.91
2023-03-29T14:11:44.946Z,29.23
2023-03-29T14:14:11.575Z,28.56
2023-03-29T14:16:40.101Z,28.15
2023-03-29T14:19:15.401Z,27.88
2023-03-29T14:21:43.767Z,27.20
2023-03-29T14:24:12.842Z,26.42
2023-03-29T14:26:46.249Z,26.01
2023-03-29T14:29:12.811Z,25.91
2023-03-29T14:31:41.446Z,25.65
2023-03-29T14:34:14.379Z,26.01
2023-03-29T14:36:42.915Z,26.61
2023-03-29T14:39:18.433Z,27.16
2023-03-29T14:41:53.054Z,27.20
2023-03-29T14:44:27.015Z,26.90
2023-03-29T14:46:56.368Z,27.05
2023-03-29T14:49:28.626Z,27.37
2023-03-29T14:51:58.361Z,27.15
2023-03-29T14:54:29.889Z,26.97
2023-03-29T14:57:00.029Z,26.57
2023-03-29T14:59:37.692Z,26.24
2023-03-29T15:02:05.020Z,26.41
2023-03-29T15:04:36.133Z,26.24
2023-03-29T15:07:06.607Z,26.08
2023-03-29T15:09:34.897Z,25.86
2023-03-29T15:12:03.435Z,25.73
2023-03-29T15:14:37.026Z,26.04
2023-03-29T15:17:49.447Z,26.67
2023-03-29T15:20:30.095Z,27.30
2023-03-29T15:23:03.428Z,27.58
2023-03-29T15:25:37.622Z,27.26
2023-03-29T15:28:04.964Z,27.25
2023-03-29T15:30:38.669Z,27.39
2023-03-29T15:33:16.477Z,27.36
2023-03-29T15:35:46.452Z,26.99
2023-03-29T15:38:13.231Z,27.15
2023-03-29T15:40:39.861Z,27.05
2023-03-29T15:43:06.408Z,26.81
2023-03-29T15:45:33.919Z,26.85
2023-03-29T15:48:04.813Z,26.61
2023-03-29T15:50:32.566Z,26.25
2023-03-29T15:53:08.619Z,25.89
2023-03-29T15:55:44.992Z,25.62
2023-03-29T15:58:20.511Z,25.43
2023-03-29T16:00:54.682Z,25.27
2023-03-29T16:03:22.333Z,25.23
2023-03-29T16:05:48.888Z,25.03
2023-03-29T16:08:15.695Z,24.92
2023-03-29T16:10:43.870Z,24.84
2023-03-29T16:13:13.890Z,24.80
2023-03-29T16:15:41.305Z,24.73
2023-03-29T16:18:08.137Z,24.66
2023-03-29T16:20:34.890Z,24.56
2023-03-29T16:23:01.455Z,24.45
2023-03-29T16:25:28.205Z,24.37
2023-03-29T16:27:58.528Z,24.11
2023-03-29T16:30:30.905Z,24.23
2023-03-29T16:33:02.974Z,24.15
2023-03-29T16:35:32.133Z,24.15
2023-03-29T16:37:58.912Z,24.07
2023-03-29T16:40:27.994Z,24.01
2023-03-29T16:42:58.080Z,23.95
2023-03-29T16:45:28.123Z,23.92
2023-03-29T16:47:58.069Z,23.76
2023-03-29T16:50:27.893Z,23.59
2023-03-29T16:52:56.741Z,23.52
2023-03-29T16:55:23.320Z,23.31
2023-03-29T16:57:50.911Z,23.28
2023-03-29T17:00:19.790Z,23.22
2023-03-29T17:02:49.564Z,23.11
2023-03-29T17:05:17.366Z,23.07
2023-03-29T17:07:43.954Z,23.00
2023-03-29T17:10:12.404Z,22.92
2023-03-29T17:12:39.098Z,22.83
2023-03-29T17:15:07.803Z,22.75
2023-03-29T17:17:35.269Z,22.75
2023-03-29T17:20:01.870Z,22.63
2023-03-29T17:22:28.436Z,22.59
2023-03-29T17:24:58.279Z,22.51
2023-03-29T17:27:28.560Z,22.38
2023-03-29T17:29:58.076Z,22.37
2023-03-29T17:32:27.754Z,22.33
2023-03-29T17:34:54.512Z,22.20
2023-03-29T17:37:27.341Z,22.09
2023-03-29T17:39:57.230Z,21.99
2023-03-29T17:42:26.522Z,21.77
2023-03-29T17:44:53.012Z,21.78
2023-03-29T17:47:19.476Z,21.79
2023-03-29T17:49:46.195Z,21.74
2023-03-29T17:52:12.660Z,21.50
2023-03-29T17:54:39.580Z,21.37
2023-03-29T17:57:06.215Z,21.27
2023-03-29T17:59:32.887Z,21.08
2023-03-29T18:02:02.529Z,20.88
2023-03-29T18:04:29.220Z,20.77
2023-03-29T18:07:01.354Z,20.66
2023-03-29T18:09:30.621Z,20.55
2023-03-29T18:12:00.674Z,20.57
2023-03-29T18:14:27.101Z,20.49
2023-03-29T18:16:53.741Z,20.52
2023-03-29T18:19:23.323Z,20.25
2023-03-29T18:21:49.892Z,20.08
2023-03-29T18:24:19.602Z,20.00
2023-03-29T18:26:46.055Z,19.79
2023-03-29T18:29:12.980Z,19.84
2023-03-29T18:31:48.823Z,19.71
2023-03-29T18:34:21.468Z,19.97
2023-03-29T18:36:50.599Z,19.57
2023-03-29T18:39:17.454Z,19.44
2023-03-29T18:41:44.040Z,19.52
2023-03-29T18:44:10.768Z,19.24
2023-03-29T18:46:37.414Z,19.56
2023-03-29T18:49:03.969Z,19.60
2023-03-29T18:51:31.034Z,19.47
2023-03-29T18:54:01.365Z,19.45
2023-03-29T18:56:31.707Z,19.35
2023-03-29T18:59:05.126Z,19.17
2023-03-29T19:01:32.821Z,19.16
2023-03-29T19:03:59.329Z,19.05
2023-03-29T19:06:27.697Z,18.93
2023-03-29T19:08:55.289Z,18.82
2023-03-29T19:11:22.934Z,18.79
2023-03-29T19:13:50.676Z,18.67
2023-03-29T19:16:17.346Z,18.46
2023-03-29T19:18:43.919Z,18.22
2023-03-29T19:21:10.718Z,18.03
2023-03-29T19:23:37.409Z,18.07
2023-03-29T19:26:05.581Z,17.86
2023-03-29T19:28:33.798Z,17.84
2023-03-29T19:31:01.913Z,17.79
2023-03-29T19:33:30.226Z,17.65
2023-03-29T19:35:59.093Z,17.57
2023-03-29T19:38:25.656Z,17.49
2023-03-29T19:40:52.312Z,17.47
2023-03-29T19:43:20.717Z,17.45
2023-03-29T19:45:49.115Z,17.49
2023-03-29T19:48:22.446Z,17.42
2023-03-29T19:50:50.442Z,17.37
2023-03-29T19:53:17.142Z,17.33
2023-03-29T19:55:45.319Z,17.29
2023-03-29T19:58:12.412Z,17.25
2023-03-29T20:00:39.160Z,17.14
2023-03-29T20:03:09.489Z,17.14
2023-03-29T20:05:38.078Z,17.22
2023-03-29T20:08:04.702Z,17.28
2023-03-29T20:10:31.535Z,17.40
2023-03-29T20:13:01.172Z,17.43
2023-03-29T20:15:28.600Z,17.46
2023-03-29T20:17:59.912Z,17.44
2023-03-29T20:20:28.333Z,17.41
2023-03-29T20:23:03.708Z,17.36
2023-03-29T20:25:31.779Z,17.30
2023-03-29T20:28:02.143Z,17.10
2023-03-29T20:30:32.044Z,17.21
2023-03-29T20:33:01.283Z,17.28
2023-03-29T20:35:31.763Z,17.23
2023-03-29T20:38:02.511Z,17.27
2023-03-29T20:40:31.990Z,17.32
2023-03-29T20:43:01.361Z,17.28
2023-03-29T20:45:37.288Z,17.26
2023-03-29T20:48:14.180Z,17.16
2023-03-29T20:50:41.188Z,17.17
2023-03-29T20:53:08.178Z,17.23
2023-03-29T20:55:38.737Z,17.27
2023-03-29T20:58:06.196Z,17.44
2023-03-29T21:00:38.410Z,17.61
2023-03-29T21:03:05.118Z,17.72
2023-03-29T21:05:33.178Z,17.68
2023-03-29T21:08:04.121Z,17.66
2023-03-29T21:10:33.729Z,17.59
2023-03-29T21:13:03.246Z,17.73
2023-03-29T21:15:35.113Z,17.84
2023-03-29T21:18:04.718Z,17.86
2023-03-29T21:20:32.282Z,17.92
2023-03-29T21:22:59.215Z,18.11
2023-03-29T21:25:26.260Z,18.23
2023-03-29T21:27:53.012Z,18.24
2023-03-29T21:30:19.428Z,18.38
2023-03-29T21:32:46.258Z,18.45
2023-03-29T21:35:13.229Z,18.62
2023-03-29T21:37:39.664Z,18.67
2023-03-29T21:40:08.748Z,18.81
2023-03-29T21:42:35.424Z,18.95
2023-03-29T21:45:05.773Z,19.01
2023-03-29T21:47:35.547Z,19.00
2023-03-29T21:50:06.080Z,19.04
2023-03-29T21:52:33.877Z,19.14
2023-03-29T21:55:02.333Z,19.27
2023-03-29T21:57:28.898Z,19.20
2023-03-29T21:59:55.883Z,19.15
2023-03-29T22:02:22.448Z,19.09
2023-03-29T22:04:49.015Z,18.99
2023-03-29T22:07:15.808Z,19.01
2023-03-29T22:09:42.657Z,19.18
2023-03-29T22:12:09.964Z,19.11
2023-03-29T22:14:36.484Z,19.21
2023-03-29T22:17:06.820Z,19.18
2023-03-29T22:19:39.709Z,19.21
2023-03-29T22:22:13.265Z,19.22
2023-03-29T22:24:41.362Z,19.18
2023-03-29T22:27:08.357Z,19.15
2023-03-29T22:29:34.844Z,19.06
2023-03-29T22:35:42.000Z,18.91
2023-03-29T22:38:08.488Z,18.84
2023-03-29T22:40:34.976Z,18.87
2023-03-29T22:43:03.912Z,18.82
2023-03-29T22:45:31.626Z,18.71
2023-03-29T22:47:58.142Z,18.63
2023-03-29T22:50:24.643Z,18.53
2023-03-29T22:52:51.079Z,18.63
2023-03-29T22:55:17.529Z,18.68
2023-03-29T22:57:44.628Z,18.62
2023-03-29T23:00:13.212Z,18.58
2023-03-29T23:02:40.157Z,18.64
2023-03-29T23:05:07.346Z,18.73
2023-03-29T23:07:36.486Z,18.73
2023-03-29T23:10:12.399Z,18.74
2023-03-29T23:12:39.235Z,18.83
2023-03-29T23:15:09.992Z,18.75
2023-03-29T23:17:37.234Z,18.74
2023-03-29T23:20:06.211Z,18.68
2023-03-29T23:22:34.254Z,18.72
2023-03-29T23:25:00.721Z,18.71
2023-03-29T23:27:27.173Z,18.75
2023-03-29T23:29:53.656Z,18.72
2023-03-29T23:32:20.493Z,18.84
2023-03-29T23:34:46.923Z,18.74
2023-03-29T23:37:13.370Z,18.88
2023-03-29T23:39:39.839Z,18.74
2023-03-29T23:42:08.809Z,18.76
2023-03-29T23:44:35.327Z,18.73
2023-03-29T23:47:01.895Z,18.73
2023-03-29T23:49:28.354Z,18.90
2023-03-29T23:51:55.995Z,18.96
2023-03-29T23:54:22.615Z,18.87
2023-03-29T23:56:49.200Z,18.94
2023-03-29T23:59:15.678Z,18.86
